createdAt,value
2018-02-07T00:01:47.692Z,34.17
2018-02-07T00:04:14.109Z,34.63
2018-02-07T00:06:40.524Z,29.23
2018-02-07T00:09:06.906Z,27.55
2018-02-07T00:11:34.056Z,26.92
2018-02-07T00:14:00.441Z,27.35
2018-02-07T00:16:26.890Z,27.87
2018-02-07T00:18:53.295Z,28.35
2018-02-07T00:21:19.682Z,25.55
2018-02-07T00:23:46.126Z,26.65
2018-02-07T00:26:12.545Z,25.33
2018-02-07T00:28:38.961Z,32.60
2018-02-07T00:31:05.359Z,29.40
2018-02-07T00:33:31.766Z,30.08
2018-02-07T00:35:58.172Z,29.75
2018-02-07T00:38:24.565Z,33.75
2018-02-07T00:40:50.969Z,30.40
2018-02-07T00:43:18.109Z,30.50
2018-02-07T00:45:44.501Z,22.92
2018-02-07T00:48:10.930Z,36.50
2018-02-07T00:50:37.306Z,29.70
2018-02-07T00:53:03.778Z,36.65
2018-02-07T00:55:30.183Z,34.85
2018-02-07T00:57:56.595Z,35.38
2018-02-07T01:00:23.001Z,29.40
2018-02-07T01:02:49.403Z,27.70
2018-02-07T01:05:16.578Z,36.97
2018-02-07T01:07:43.011Z,29.05
2018-02-07T01:10:09.436Z,29.50
2018-02-07T01:12:36.604Z,36.00
2018-02-07T01:15:03.033Z,37.40
2018-02-07T01:17:29.458Z,38.80
2018-02-07T01:19:55.872Z,41.00
2018-02-07T01:22:23.050Z,31.25
2018-02-07T01:24:49.437Z,31.12
2018-02-07T01:27:15.834Z,28.45
2018-02-07T01:29:42.306Z,29.87
2018-02-07T01:32:08.687Z,31.17
2018-02-07T01:34:35.085Z,39.38
2018-02-07T01:37:01.471Z,38.63
2018-02-07T01:39:27.993Z,46.72
2018-02-07T01:41:54.370Z,38.45
2018-02-07T01:44:20.810Z,38.83
2018-02-07T01:46:47.945Z,36.85
2018-02-07T01:49:14.387Z,35.08
2018-02-07T01:51:40.776Z,34.85
2018-02-07T01:54:07.174Z,40.22
2018-02-07T01:56:33.559Z,36.50
2018-02-07T01:58:59.938Z,33.15
2018-02-07T02:01:26.349Z,37.42
2018-02-07T02:03:52.741Z,33.05
2018-02-07T02:06:19.154Z,39.05
2018-02-07T02:08:46.272Z,38.10
2018-02-07T02:11:12.685Z,37.80
2018-02-07T02:13:39.073Z,27.27
2018-02-07T02:16:06.222Z,36.28
2018-02-07T02:18:33.397Z,37.08
2018-02-07T02:20:59.769Z,39.17
2018-02-07T02:23:26.198Z,36.38
2018-02-07T02:25:52.561Z,37.08
2018-02-07T02:28:19.005Z,37.10
2018-02-07T02:30:45.414Z,37.97
2018-02-07T02:33:11.820Z,38.30
2018-02-07T02:35:38.249Z,36.53
2018-02-07T02:38:04.660Z,40.05
2018-02-07T02:40:31.089Z,39.25
2018-02-07T02:42:57.499Z,44.83
2018-02-07T02:45:23.896Z,46.78
2018-02-07T02:47:50.296Z,48.85
2018-02-07T02:50:17.460Z,47.00
2018-02-07T02:52:43.866Z,45.97
2018-02-07T02:55:11.046Z,44.58
2018-02-07T02:57:37.452Z,45.12
2018-02-07T03:00:03.954Z,46.88
2018-02-07T03:02:30.369Z,46.17
2018-02-07T03:04:56.757Z,34.67
2018-02-07T18:36:33.458Z,56.75
2018-02-07T18:38:59.883Z,63.47
2018-02-07T18:41:26.298Z,64.82
2018-02-07T18:43:53.495Z,65.28
2018-02-07T18:46:19.962Z,67.85
2018-02-07T18:48:46.380Z,64.55
2018-02-07T18:51:12.776Z,66.47
2018-02-07T18:53:39.183Z,64.22
2018-02-07T18:56:05.673Z,66.95
2018-02-07T18:58:32.082Z,63.60
2018-02-07T19:00:58.481Z,65.00
2018-02-07T19:03:24.877Z,63.55
2018-02-07T19:05:51.294Z,64.05
2018-02-07T19:09:03.173Z,64.80
2018-02-07T19:11:30.318Z,63.67
2018-02-07T19:13:59.444Z,66.37
2018-02-07T19:16:28.258Z,61.72
2018-02-07T19:18:55.850Z,65.55
2018-02-07T19:21:23.395Z,67.60
2018-02-07T19:23:51.458Z,64.37
2018-02-07T19:26:17.956Z,64.65
2018-02-07T19:28:46.989Z,65.87
2018-02-07T19:31:14.205Z,65.87
2018-02-07T19:33:40.584Z,65.70
2018-02-07T19:36:06.985Z,65.23
2018-02-07T19:38:33.408Z,63.42
2018-02-07T19:40:59.798Z,66.60
2018-02-07T19:43:26.232Z,61.75
2018-02-07T19:45:52.614Z,67.37
2018-02-07T19:48:19.020Z,67.25
2018-02-07T19:50:46.148Z,65.00
2018-02-07T19:53:12.582Z,64.15
2018-02-07T19:55:39.018Z,65.00
2018-02-07T19:58:05.401Z,63.87
2018-02-07T20:00:31.891Z,63.90
2018-02-07T20:02:59.022Z,65.73
2018-02-07T20:05:25.488Z,65.53
2018-02-07T20:07:52.618Z,68.22
2018-02-07T20:10:19.034Z,66.95
2018-02-07T20:12:45.432Z,66.78
2018-02-07T20:15:11.875Z,64.80
2018-02-07T20:17:38.282Z,64.93
2018-02-07T20:20:05.403Z,66.65
2018-02-07T20:22:31.817Z,62.97
2018-02-07T20:24:58.233Z,66.45
2018-02-07T20:27:24.630Z,68.82
2018-02-07T20:29:51.781Z,66.80
2018-02-07T20:32:18.897Z,65.97
2018-02-07T20:34:45.317Z,65.68
2018-02-07T20:37:11.722Z,64.65
2018-02-07T20:39:38.161Z,66.30
2018-02-07T20:42:04.570Z,67.12
2018-02-07T20:44:31.733Z,66.68
2018-02-07T20:46:58.877Z,65.55
2018-02-07T20:49:26.061Z,63.63
2018-02-07T20:51:53.208Z,65.95
2018-02-07T20:54:19.600Z,63.73
2018-02-07T20:56:46.037Z,68.22
2018-02-07T20:59:12.408Z,64.93
2018-02-07T21:01:38.811Z,65.95
2018-02-07T21:04:05.212Z,66.68
2018-02-07T21:06:31.626Z,64.90
2018-02-07T21:08:58.062Z,66.25
2018-02-07T21:11:24.456Z,65.07
2018-02-07T21:13:51.610Z,64.97
2018-02-07T21:16:18.850Z,63.30
2018-02-07T21:18:45.249Z,64.60
2018-02-07T21:21:11.651Z,64.10
2018-02-07T21:23:38.056Z,64.10
2018-02-07T21:26:04.458Z,65.43
2018-02-07T21:28:30.882Z,63.78
2018-02-07T21:30:57.278Z,63.43
2018-02-07T21:33:30.712Z,59.80
2018-02-07T21:35:57.101Z,65.05
2018-02-07T21:38:24.250Z,62.08
2018-02-07T21:40:51.386Z,64.07
2018-02-07T21:43:17.862Z,63.20
2018-02-07T21:45:44.266Z,67.12
2018-02-07T21:48:11.428Z,62.55
2018-02-07T21:50:38.560Z,63.97
2018-02-07T21:53:04.973Z,61.80
2018-02-07T21:55:31.384Z,64.90
2018-02-07T21:57:57.797Z,62.90
2018-02-07T22:00:24.177Z,65.57
2018-02-07T22:02:50.614Z,65.07
2018-02-07T22:05:17.039Z,63.67
2018-02-07T22:07:43.459Z,65.90
2018-02-07T22:10:09.878Z,65.75
2018-02-07T22:12:36.309Z,66.70
2018-02-07T22:15:02.775Z,66.47
2018-02-07T22:17:29.142Z,61.85
2018-02-07T22:19:56.294Z,64.70
2018-02-07T22:22:23.435Z,62.45
2018-02-07T22:24:49.837Z,67.07
2018-02-07T22:27:16.240Z,66.57
2018-02-07T22:29:42.657Z,65.85
2018-02-07T22:32:09.787Z,64.85
2018-02-07T22:34:36.213Z,66.28
2018-02-07T22:37:02.618Z,63.60
2018-02-07T22:39:29.025Z,65.32
2018-02-07T22:41:55.445Z,64.83
2018-02-07T22:44:22.639Z,65.78
2018-02-07T22:46:49.013Z,65.47
2018-02-07T22:49:15.413Z,66.60
2018-02-07T22:51:41.798Z,67.50
2018-02-07T22:54:08.954Z,66.15
2018-02-07T22:56:36.082Z,63.25
2018-02-07T22:59:02.499Z,68.25
2018-02-07T23:01:28.918Z,64.28
2018-02-07T23:03:55.313Z,62.93
2018-02-07T23:06:21.765Z,63.58
2018-02-07T23:08:48.186Z,63.90
2018-02-07T23:11:14.626Z,64.90
2018-02-07T23:13:41.035Z,65.78
2018-02-07T23:16:08.208Z,65.78
2018-02-07T23:18:34.608Z,64.93
2018-02-07T23:21:01.019Z,65.57
2018-02-07T23:23:27.394Z,66.70
2018-02-07T23:25:54.554Z,65.28
2018-02-07T23:28:20.927Z,64.85
2018-02-07T23:30:47.333Z,63.20
2018-02-07T23:33:13.710Z,62.62
2018-02-07T23:35:41.193Z,64.03
2018-02-07T23:38:08.304Z,64.73
2018-02-07T23:40:34.702Z,62.83
2018-02-07T23:43:01.085Z,64.07
2018-02-07T23:45:27.481Z,64.28
2018-02-07T23:47:53.878Z,67.73
2018-02-07T23:50:21.046Z,68.03
2018-02-07T23:52:48.191Z,65.18
2018-02-07T23:55:15.311Z,65.95
2018-02-07T23:57:41.705Z,64.40
